sensor_id;sensor_type;location;lat;lon;timestamp;pressure;altitude;pressure_sealevel;temperature;humidity
50867;BME280;36839;51.946;21.002;2023-04-23T00:02:08;99889.05;;;5.41;100.00
50867;BME280;36839;51.946;21.002;2023-04-23T00:04:38;99887.09;;;5.36;100.00
50867;BME280;36839;51.946;21.002;2023-04-23T00:07:06;99889.45;;;5.31;100.00
50867;BME280;36839;51.946;21.002;2023-04-23T00:09:35;99891.13;;;5.27;100.00
50867;BME280;36839;51.946;21.002;2023-04-23T00:12:04;99892.95;;;5.25;100.00
50867;BME280;36839;51.946;21.002;2023-04-23T00:14:35;99893.06;;;5.22;100.00
50867;BME280;36839;51.946;21.002;2023-04-23T00:17:06;99891.66;;;5.18;100.00
50867;BME280;36839;51.946;21.002;2023-04-23T00:19:37;99893.23;;;5.13;100.00
50867;BME280;36839;51.946;21.002;2023-04-23T00:22:07;99888.17;;;5.11;100.00
50867;BME280;36839;51.946;21.002;2023-04-23T00:24:46;99886.88;;;5.09;100.00
50867;BME280;36839;51.946;21.002;2023-04-23T00:27:13;99885.11;;;5.05;100.00
50867;BME280;36839;51.946;21.002;2023-04-23T00:29:43;99886.58;;;5.04;100.00
50867;BME280;36839;51.946;21.002;2023-04-23T00:32:12;99884.20;;;5.06;100.00
50867;BME280;36839;51.946;21.002;2023-04-23T00:34:46;99882.98;;;5.06;100.00
50867;BME280;36839;51.946;21.002;2023-04-23T00:37:15;99879.71;;;5.03;100.00
50867;BME280;36839;51.946;21.002;2023-04-23T00:39:43;99882.66;;;5.01;100.00
50867;BME280;36839;51.946;21.002;2023-04-23T00:42:11;99881.89;;;4.98;100.00
50867;BME280;36839;51.946;21.002;2023-04-23T00:44:49;99882.02;;;4.93;100.00
50867;BME280;36839;51.946;21.002;2023-04-23T00:47:19;99877.12;;;4.90;100.00
50867;BME280;36839;51.946;21.002;2023-04-23T00:49:50;99879.56;;;4.86;100.00
50867;BME280;36839;51.946;21.002;2023-04-23T00:52:26;99876.67;;;4.82;100.00
50867;BME280;36839;51.946;21.002;2023-04-23T00:54:55;99877.54;;;4.81;100.00
50867;BME280;36839;51.946;21.002;2023-04-23T00:57:24;99878.32;;;4.79;100.00
50867;BME280;36839;51.946;21.002;2023-04-23T00:59:55;99881.27;;;4.76;100.00
50867;BME280;36839;51.946;21.002;2023-04-23T01:02:26;99881.65;;;4.74;100.00
50867;BME280;36839;51.946;21.002;2023-04-23T01:04:57;99880.13;;;4.72;100.00
50867;BME280;36839;51.946;21.002;2023-04-23T01:07:26;99881.95;;;4.70;100.00
50867;BME280;36839;51.946;21.002;2023-04-23T01:09:58;99882.17;;;4.67;100.00
50867;BME280;36839;51.946;21.002;2023-04-23T01:12:25;99883.11;;;4.65;100.00
50867;BME280;36839;51.946;21.002;2023-04-23T01:14:52;99884.59;;;4.63;100.00
50867;BME280;36839;51.946;21.002;2023-04-23T01:17:24;99881.73;;;4.61;100.00
50867;BME280;36839;51.946;21.002;2023-04-23T01:19:55;99882.24;;;4.58;100.00
50867;BME280;36839;51.946;21.002;2023-04-23T01:22:27;99885.41;;;4.58;100.00
50867;BME280;36839;51.946;21.002;2023-04-23T01:24:58;99888.67;;;4.55;100.00
50867;BME280;36839;51.946;21.002;2023-04-23T01:27:26;99887.21;;;4.53;100.00
50867;BME280;36839;51.946;21.002;2023-04-23T01:29:54;99885.95;;;4.57;100.00
50867;BME280;36839;51.946;21.002;2023-04-23T01:32:22;99884.16;;;4.55;100.00
50867;BME280;36839;51.946;21.002;2023-04-23T01:34:50;99883.70;;;4.53;100.00
50867;BME280;36839;51.946;21.002;2023-04-23T01:37:20;99880.64;;;4.48;100.00
50867;BME280;36839;51.946;21.002;2023-04-23T01:39:50;99881.14;;;4.41;100.00
50867;BME280;36839;51.946;21.002;2023-04-23T01:42:21;99881.31;;;4.37;100.00
50867;BME280;36839;51.946;21.002;2023-04-23T01:44:49;99878.36;;;4.35;100.00
50867;BME280;36839;51.946;21.002;2023-04-23T01:47:19;99882.66;;;4.34;100.00
50867;BME280;36839;51.946;21.002;2023-04-23T01:49:46;99881.48;;;4.32;100.00
50867;BME280;36839;51.946;21.002;2023-04-23T01:52:14;99881.80;;;4.29;100.00
50867;BME280;36839;51.946;21.002;2023-04-23T01:54:44;99883.98;;;4.25;100.00
50867;BME280;36839;51.946;21.002;2023-04-23T01:57:12;99885.38;;;4.21;100.00
50867;BME280;36839;51.946;21.002;2023-04-23T01:59:41;99882.55;;;4.17;100.00
50867;BME280;36839;51.946;21.002;2023-04-23T02:02:14;99886.00;;;4.15;100.00
50867;BME280;36839;51.946;21.002;2023-04-23T02:04:45;99886.55;;;4.13;100.00
50867;BME280;36839;51.946;21.002;2023-04-23T02:07:14;99886.45;;;4.12;100.00
50867;BME280;36839;51.946;21.002;2023-04-23T02:09:43;99887.39;;;4.09;100.00
50867;BME280;36839;51.946;21.002;2023-04-23T02:12:11;99883.54;;;4.08;100.00
50867;BME280;36839;51.946;21.002;2023-04-23T02:14:39;99882.25;;;4.07;100.00
50867;BME280;36839;51.946;21.002;2023-04-23T02:17:10;99882.78;;;4.05;100.00
50867;BME280;36839;51.946;21.002;2023-04-23T02:19:41;99879.17;;;4.02;100.00
50867;BME280;36839;51.946;21.002;2023-04-23T02:22:09;99874.83;;;4.00;100.00
50867;BME280;36839;51.946;21.002;2023-04-23T02:24:37;99877.78;;;3.98;100.00
50867;BME280;36839;51.946;21.002;2023-04-23T02:27:14;99876.05;;;3.95;100.00
50867;BME280;36839;51.946;21.002;2023-04-23T02:29:42;99880.23;;;3.92;100.00
50867;BME280;36839;51.946;21.002;2023-04-23T02:32:11;99881.30;;;3.88;100.00
50867;BME280;36839;51.946;21.002;2023-04-23T02:34:41;99880.98;;;3.87;100.00
50867;BME280;36839;51.946;21.002;2023-04-23T02:37:10;99883.49;;;3.87;100.00
50867;BME280;36839;51.946;21.002;2023-04-23T02:39:40;99881.19;;;3.87;100.00
50867;BME280;36839;51.946;21.002;2023-04-23T02:42:12;99880.79;;;3.86;100.00
50867;BME280;36839;51.946;21.002;2023-04-23T02:44:39;99879.80;;;3.84;100.00
50867;BME280;36839;51.946;21.002;2023-04-23T02:47:10;99882.09;;;3.83;100.00
50867;BME280;36839;51.946;21.002;2023-04-23T02:49:38;99880.27;;;3.82;100.00
50867;BME280;36839;51.946;21.002;2023-04-23T02:52:05;99878.66;;;3.81;100.00
50867;BME280;36839;51.946;21.002;2023-04-23T02:54:36;99876.20;;;3.79;100.00
50867;BME280;36839;51.946;21.002;2023-04-23T02:57:06;99875.20;;;3.77;100.00
50867;BME280;36839;51.946;21.002;2023-04-23T02:59:33;99875.75;;;3.75;100.00
50867;BME280;36839;51.946;21.002;2023-04-23T03:02:01;99878.71;;;3.72;100.00
50867;BME280;36839;51.946;21.002;2023-04-23T03:04:30;99878.40;;;3.69;100.00
50867;BME280;36839;51.946;21.002;2023-04-23T03:07:25;99876.21;;;3.73;100.00
50867;BME280;36839;51.946;21.002;2023-04-23T03:09:54;99878.61;;;3.70;100.00
50867;BME280;36839;51.946;21.002;2023-04-23T03:12:25;99876.21;;;3.70;100.00
50867;BME280;36839;51.946;21.002;2023-04-23T03:14:52;99875.25;;;3.70;100.00
50867;BME280;36839;51.946;21.002;2023-04-23T03:17:21;99873.30;;;3.69;100.00
50867;BME280;36839;51.946;21.002;2023-04-23T03:19:51;99876.48;;;3.66;100.00
50867;BME280;36839;51.946;21.002;2023-04-23T03:22:20;99874.03;;;3.62;100.00
50867;BME280;36839;51.946;21.002;2023-04-23T03:24:49;99873.33;;;3.60;100.00
50867;BME280;36839;51.946;21.002;2023-04-23T03:27:17;99872.50;;;3.57;100.00
50867;BME280;36839;51.946;21.002;2023-04-23T03:29:48;99874.59;;;3.55;100.00
50867;BME280;36839;51.946;21.002;2023-04-23T03:32:18;99874.83;;;3.53;100.00
50867;BME280;36839;51.946;21.002;2023-04-23T03:34:46;99872.20;;;3.53;100.00
50867;BME280;36839;51.946;21.002;2023-04-23T03:37:15;99871.00;;;3.51;100.00
50867;BME280;36839;51.946;21.002;2023-04-23T03:39:45;99867.94;;;3.50;100.00
50867;BME280;36839;51.946;21.002;2023-04-23T03:42:15;99865.30;;;3.49;100.00
50867;BME280;36839;51.946;21.002;2023-04-23T03:44:44;99869.15;;;3.48;100.00
50867;BME280;36839;51.946;21.002;2023-04-23T03:47:20;99866.54;;;3.48;100.00
50867;BME280;36839;51.946;21.002;2023-04-23T03:49:49;99866.52;;;3.49;100.00
50867;BME280;36839;51.946;21.002;2023-04-23T03:52:17;99867.36;;;3.50;100.00
50867;BME280;36839;51.946;21.002;2023-04-23T03:54:47;99868.75;;;3.53;100.00
50867;BME280;36839;51.946;21.002;2023-04-23T03:57:16;99872.79;;;3.55;100.00
50867;BME280;36839;51.946;21.002;2023-04-23T03:59:43;99873.12;;;3.57;100.00
50867;BME280;36839;51.946;21.002;2023-04-23T04:02:10;99871.46;;;3.62;100.00
50867;BME280;36839;51.946;21.002;2023-04-23T04:04:41;99875.83;;;3.67;100.00
50867;BME280;36839;51.946;21.002;2023-04-23T04:07:10;99876.13;;;3.71;100.00
50867;BME280;36839;51.946;21.002;2023-04-23T04:09:38;99876.35;;;3.77;100.00
50867;BME280;36839;51.946;21.002;2023-04-23T04:12:06;99876.80;;;3.83;100.00
50867;BME280;36839;51.946;21.002;2023-04-23T04:14:34;99880.30;;;3.90;100.00
50867;BME280;36839;51.946;21.002;2023-04-23T04:17:01;99878.05;;;3.96;100.00
50867;BME280;36839;51.946;21.002;2023-04-23T04:19:41;99881.23;;;4.04;100.00
50867;BME280;36839;51.946;21.002;2023-04-23T04:22:10;99875.30;;;4.11;100.00
50867;BME280;36839;51.946;21.002;2023-04-23T04:24:39;99874.44;;;4.21;100.00
50867;BME280;36839;51.946;21.002;2023-04-23T04:27:07;99871.77;;;4.33;100.00
50867;BME280;36839;51.946;21.002;2023-04-23T04:29:37;99870.11;;;4.46;100.00
50867;BME280;36839;51.946;21.002;2023-04-23T04:32:20;99874.23;;;4.60;100.00
50867;BME280;36839;51.946;21.002;2023-04-23T04:34:51;99877.22;;;4.68;100.00
50867;BME280;36839;51.946;21.002;2023-04-23T04:37:19;99877.94;;;4.76;100.00
50867;BME280;36839;51.946;21.002;2023-04-23T04:39:47;99879.08;;;4.87;100.00
50867;BME280;36839;51.946;21.002;2023-04-23T04:42:16;99878.23;;;4.98;100.00
50867;BME280;36839;51.946;21.002;2023-04-23T04:44:48;99876.48;;;5.09;100.00
50867;BME280;36839;51.946;21.002;2023-04-23T04:47:18;99879.06;;;5.23;100.00
50867;BME280;36839;51.946;21.002;2023-04-23T04:49:45;99879.73;;;5.35;100.00
50867;BME280;36839;51.946;21.002;2023-04-23T04:52:16;99881.35;;;5.48;100.00
50867;BME280;36839;51.946;21.002;2023-04-23T04:54:45;99884.80;;;5.63;100.00
50867;BME280;36839;51.946;21.002;2023-04-23T04:57:13;99881.95;;;5.78;100.00
50867;BME280;36839;51.946;21.002;2023-04-23T04:59:41;99880.77;;;5.94;100.00
50867;BME280;36839;51.946;21.002;2023-04-23T05:02:11;99883.61;;;6.10;100.00
50867;BME280;36839;51.946;21.002;2023-04-23T05:04:39;99880.39;;;6.27;100.00
50867;BME280;36839;51.946;21.002;2023-04-23T05:07:10;99880.02;;;6.43;100.00
50867;BME280;36839;51.946;21.002;2023-04-23T05:09:38;99877.06;;;6.59;100.00
50867;BME280;36839;51.946;21.002;2023-04-23T05:12:07;99874.82;;;6.74;100.00
50867;BME280;36839;51.946;21.002;2023-04-23T05:14:37;99876.95;;;6.90;100.00
50867;BME280;36839;51.946;21.002;2023-04-23T05:17:08;99871.28;;;7.06;100.00
50867;BME280;36839;51.946;21.002;2023-04-23T05:19:37;99870.02;;;7.24;100.00
50867;BME280;36839;51.946;21.002;2023-04-23T05:22:13;99869.61;;;7.42;100.00
50867;BME280;36839;51.946;21.002;2023-04-23T05:24:47;99873.05;;;7.61;100.00
50867;BME280;36839;51.946;21.002;2023-04-23T05:27:16;99871.55;;;7.77;100.00
50867;BME280;36839;51.946;21.002;2023-04-23T05:29:44;99870.36;;;7.95;100.00
50867;BME280;36839;51.946;21.002;2023-04-23T05:32:17;99867.73;;;8.12;100.00
50867;BME280;36839;51.946;21.002;2023-04-23T05:34:56;99863.18;;;8.27;100.00
50867;BME280;36839;51.946;21.002;2023-04-23T05:37:25;99869.49;;;8.43;100.00
50867;BME280;36839;51.946;21.002;2023-04-23T05:39:54;99865.08;;;8.58;100.00
50867;BME280;36839;51.946;21.002;2023-04-23T05:42:26;99864.39;;;8.73;100.00
50867;BME280;36839;51.946;21.002;2023-04-23T05:44:56;99862.60;;;8.88;100.00
50867;BME280;36839;51.946;21.002;2023-04-23T05:47:23;99862.94;;;9.02;100.00
50867;BME280;36839;51.946;21.002;2023-04-23T05:50:01;99864.83;;;9.17;100.00
50867;BME280;36839;51.946;21.002;2023-04-23T05:52:35;99858.30;;;9.32;100.00
50867;BME280;36839;51.946;21.002;2023-04-23T05:55:06;99862.77;;;9.50;100.00
50867;BME280;36839;51.946;21.002;2023-04-23T05:57:41;99856.52;;;9.68;100.00
50867;BME280;36839;51.946;21.002;2023-04-23T06:00:08;99858.02;;;9.83;100.00
50867;BME280;36839;51.946;21.002;2023-04-23T06:02:38;99853.23;;;9.99;100.00
50867;BME280;36839;51.946;21.002;2023-04-23T06:05:07;99855.66;;;10.14;100.00
50867;BME280;36839;51.946;21.002;2023-04-23T06:07:38;99854.31;;;10.28;100.00
50867;BME280;36839;51.946;21.002;2023-04-23T06:10:06;99853.13;;;10.43;100.00
50867;BME280;36839;51.946;21.002;2023-04-23T06:12:33;99855.38;;;10.60;100.00
50867;BME280;36839;51.946;21.002;2023-04-23T06:15:06;99853.57;;;10.75;100.00
50867;BME280;36839;51.946;21.002;2023-04-23T06:17:36;99852.29;;;10.90;100.00
50867;BME280;36839;51.946;21.002;2023-04-23T06:20:06;99854.73;;;11.06;100.00
50867;BME280;36839;51.946;21.002;2023-04-23T06:22:37;99851.79;;;11.20;100.00
50867;BME280;36839;51.946;21.002;2023-04-23T06:25:05;99854.59;;;11.36;100.00
50867;BME280;36839;51.946;21.002;2023-04-23T06:27:33;99851.23;;;11.53;100.00
50867;BME280;36839;51.946;21.002;2023-04-23T06:30:08;99851.20;;;11.68;100.00
50867;BME280;36839;51.946;21.002;2023-04-23T06:32:35;99846.20;;;11.83;100.00
50867;BME280;36839;51.946;21.002;2023-04-23T06:35:12;99848.59;;;11.97;100.00
50867;BME280;36839;51.946;21.002;2023-04-23T06:37:40;99848.48;;;12.12;100.00
50867;BME280;36839;51.946;21.002;2023-04-23T06:40:09;99845.80;;;12.26;100.00
50867;BME280;36839;51.946;21.002;2023-04-23T06:42:39;99844.27;;;12.43;100.00
50867;BME280;36839;51.946;21.002;2023-04-23T06:45:07;99845.73;;;12.56;100.00
50867;BME280;36839;51.946;21.002;2023-04-23T06:47:36;99840.92;;;12.71;100.00
50867;BME280;36839;51.946;21.002;2023-04-23T06:50:06;99842.53;;;12.86;98.13
50867;BME280;36839;51.946;21.002;2023-04-23T06:52:36;99843.46;;;13.00;97.63
50867;BME280;36839;51.946;21.002;2023-04-23T06:55:16;99844.55;;;13.16;94.94
50867;BME280;36839;51.946;21.002;2023-04-23T06:57:53;99842.90;;;13.29;94.38
50867;BME280;36839;51.946;21.002;2023-04-23T07:00:22;99840.91;;;13.41;88.65
50867;BME280;36839;51.946;21.002;2023-04-23T07:02:50;99842.05;;;13.52;84.94
50867;BME280;36839;51.946;21.002;2023-04-23T07:05:17;99841.77;;;13.63;85.59
50867;BME280;36839;51.946;21.002;2023-04-23T07:07:49;99843.13;;;13.76;84.34
50867;BME280;36839;51.946;21.002;2023-04-23T07:10:19;99844.82;;;13.90;84.77
50867;BME280;36839;51.946;21.002;2023-04-23T07:12:57;99842.58;;;14.05;85.69
50867;BME280;36839;51.946;21.002;2023-04-23T07:15:27;99840.55;;;14.17;80.53
50867;BME280;36839;51.946;21.002;2023-04-23T07:17:54;99836.70;;;14.27;78.56
50867;BME280;36839;51.946;21.002;2023-04-23T07:20:43;99832.20;;;14.40;77.27
50867;BME280;36839;51.946;21.002;2023-04-23T07:23:11;99835.17;;;14.53;77.57
50867;BME280;36839;51.946;21.002;2023-04-23T07:25:40;99834.43;;;14.68;79.40
50867;BME280;36839;51.946;21.002;2023-04-23T07:28:09;99831.73;;;14.84;80.00
50867;BME280;36839;51.946;21.002;2023-04-23T07:30:42;99828.84;;;15.01;76.72
50867;BME280;36839;51.946;21.002;2023-04-23T07:33:10;99827.95;;;15.11;75.39
50867;BME280;36839;51.946;21.002;2023-04-23T07:35:37;99826.52;;;15.24;74.59
50867;BME280;36839;51.946;21.002;2023-04-23T07:38:08;99826.98;;;15.38;75.21
50867;BME280;36839;51.946;21.002;2023-04-23T07:40:36;99822.58;;;15.50;70.96
50867;BME280;36839;51.946;21.002;2023-04-23T07:43:04;99826.48;;;15.64;71.49
50867;BME280;36839;51.946;21.002;2023-04-23T07:45:33;99822.73;;;15.77;69.86
50867;BME280;36839;51.946;21.002;2023-04-23T07:48:10;99822.59;;;15.86;68.15
50867;BME280;36839;51.946;21.002;2023-04-23T07:50:39;99821.84;;;16.00;69.86
50867;BME280;36839;51.946;21.002;2023-04-23T07:53:06;99818.50;;;16.14;67.34
50867;BME280;36839;51.946;21.002;2023-04-23T07:55:40;99816.13;;;16.30;66.01
50867;BME280;36839;51.946;21.002;2023-04-23T07:58:10;99815.27;;;16.44;66.30
50867;BME280;36839;51.946;21.002;2023-04-23T08:00:38;99815.46;;;16.59;67.51
50867;BME280;36839;51.946;21.002;2023-04-23T08:03:14;99817.38;;;16.74;65.34
50867;BME280;36839;51.946;21.002;2023-04-23T08:05:44;99818.40;;;16.85;59.79
50867;BME280;36839;51.946;21.002;2023-04-23T08:08:21;99815.31;;;16.97;58.43
50867;BME280;36839;51.946;21.002;2023-04-23T08:10:50;99808.86;;;17.05;56.97
50867;BME280;36839;51.946;21.002;2023-04-23T08:13:20;99809.55;;;17.16;57.86
50867;BME280;36839;51.946;21.002;2023-04-23T08:15:49;99807.81;;;17.27;57.73
50867;BME280;36839;51.946;21.002;2023-04-23T08:18:20;99803.85;;;17.36;57.02
50867;BME280;36839;51.946;21.002;2023-04-23T08:20:49;99804.44;;;17.47;54.59
50867;BME280;36839;51.946;21.002;2023-04-23T08:23:19;99805.40;;;17.57;54.98
50867;BME280;36839;51.946;21.002;2023-04-23T08:25:46;99798.30;;;17.72;56.08
50867;BME280;36839;51.946;21.002;2023-04-23T08:28:17;99799.55;;;17.87;56.66
50867;BME280;36839;51.946;21.002;2023-04-23T08:30:46;99800.29;;;18.05;57.57
50867;BME280;36839;51.946;21.002;2023-04-23T08:33:14;99801.20;;;18.21;54.42
50867;BME280;36839;51.946;21.002;2023-04-23T08:35:41;99802.86;;;18.28;50.67
50867;BME280;36839;51.946;21.002;2023-04-23T08:38:09;99799.48;;;18.36;51.31
50867;BME280;36839;51.946;21.002;2023-04-23T08:40:37;99804.15;;;18.46;50.43
50867;BME280;36839;51.946;21.002;2023-04-23T08:43:20;99799.22;;;18.49;48.37
50867;BME280;36839;51.946;21.002;2023-04-23T08:46:02;99797.91;;;18.58;47.45
50867;BME280;36839;51.946;21.002;2023-04-23T08:48:34;99788.75;;;18.62;45.75
50867;BME280;36839;51.946;21.002;2023-04-23T08:51:04;99788.36;;;18.66;47.75
50867;BME280;36839;51.946;21.002;2023-04-23T08:53:34;99788.69;;;18.76;46.96
50867;BME280;36839;51.946;21.002;2023-04-23T08:56:04;99788.10;;;18.78;46.54
50867;BME280;36839;51.946;21.002;2023-04-23T08:58:40;99782.71;;;18.82;46.93
50867;BME280;36839;51.946;21.002;2023-04-23T09:01:09;99778.88;;;18.99;49.60
50867;BME280;36839;51.946;21.002;2023-04-23T09:03:40;99774.52;;;19.09;46.63
50867;BME280;36839;51.946;21.002;2023-04-23T09:06:09;99774.41;;;19.17;45.28
50867;BME280;36839;51.946;21.002;2023-04-23T09:08:39;99772.35;;;19.18;42.63
50867;BME280;36839;51.946;21.002;2023-04-23T09:11:08;99774.30;;;19.21;44.38
50867;BME280;36839;51.946;21.002;2023-04-23T09:13:41;99769.54;;;19.19;42.50
50867;BME280;36839;51.946;21.002;2023-04-23T09:16:13;99769.55;;;19.22;43.10
50867;BME280;36839;51.946;21.002;2023-04-23T09:18:41;99768.79;;;19.32;44.91
50867;BME280;36839;51.946;21.002;2023-04-23T09:21:08;99769.08;;;19.50;46.25
50867;BME280;36839;51.946;21.002;2023-04-23T09:23:39;99768.41;;;19.59;42.62
50867;BME280;36839;51.946;21.002;2023-04-23T09:26:07;99769.06;;;19.70;44.18
50867;BME280;36839;51.946;21.002;2023-04-23T09:28:35;99768.55;;;19.73;43.86
50867;BME280;36839;51.946;21.002;2023-04-23T09:31:04;99764.36;;;19.81;44.33
50867;BME280;36839;51.946;21.002;2023-04-23T09:33:41;99761.77;;;19.87;42.62
50867;BME280;36839;51.946;21.002;2023-04-23T09:36:25;99758.92;;;19.92;42.61
50867;BME280;36839;51.946;21.002;2023-04-23T09:38:59;99757.36;;;19.98;40.99
50867;BME280;36839;51.946;21.002;2023-04-23T09:41:32;99756.75;;;20.05;42.47
50867;BME280;36839;51.946;21.002;2023-04-23T09:44:01;99756.73;;;20.11;40.56
50867;BME280;36839;51.946;21.002;2023-04-23T09:46:36;99754.92;;;20.16;41.87
50867;BME280;36839;51.946;21.002;2023-04-23T09:49:05;99749.10;;;20.21;39.76
50867;BME280;36839;51.946;21.002;2023-04-23T09:51:37;99745.77;;;20.25;39.74
50867;BME280;36839;51.946;21.002;2023-04-23T09:54:12;99742.27;;;20.26;38.50
50867;BME280;36839;51.946;21.002;2023-04-23T09:56:41;99740.17;;;20.30;40.11
50867;BME280;36839;51.946;21.002;2023-04-23T09:59:26;99738.67;;;20.42;41.79
50867;BME280;36839;51.946;21.002;2023-04-23T10:01:54;99737.22;;;20.52;39.00
50867;BME280;36839;51.946;21.002;2023-04-23T10:04:24;99732.63;;;20.56;38.42
50867;BME280;36839;51.946;21.002;2023-04-23T10:07:00;99731.48;;;20.58;37.96
50867;BME280;36839;51.946;21.002;2023-04-23T10:09:33;99725.84;;;20.62;38.09
50867;BME280;36839;51.946;21.002;2023-04-23T10:12:02;99724.65;;;20.70;38.80
50867;BME280;36839;51.946;21.002;2023-04-23T10:14:30;99723.06;;;20.87;40.56
50867;BME280;36839;51.946;21.002;2023-04-23T10:17:01;99722.84;;;21.05;41.82
50867;BME280;36839;51.946;21.002;2023-04-23T10:19:31;99717.20;;;21.14;39.56
50867;BME280;36839;51.946;21.002;2023-04-23T10:22:03;99714.77;;;21.19;37.29
50867;BME280;36839;51.946;21.002;2023-04-23T10:24:39;99714.45;;;21.14;37.63
50867;BME280;36839;51.946;21.002;2023-04-23T10:27:10;99708.34;;;21.16;38.77
50867;BME280;36839;51.946;21.002;2023-04-23T10:29:41;99707.87;;;21.29;39.41
50867;BME280;36839;51.946;21.002;2023-04-23T10:32:20;99707.61;;;21.30;37.06
50867;BME280;36839;51.946;21.002;2023-04-23T10:34:49;99705.92;;;21.30;37.25
50867;BME280;36839;51.946;21.002;2023-04-23T10:37:19;99703.71;;;21.37;37.44
50867;BME280;36839;51.946;21.002;2023-04-23T10:39:49;99695.96;;;21.46;37.07
50867;BME280;36839;51.946;21.002;2023-04-23T10:42:26;99694.98;;;21.53;37.28
50867;BME280;36839;51.946;21.002;2023-04-23T10:44:55;99696.48;;;21.64;38.30
50867;BME280;36839;51.946;21.002;2023-04-23T10:47:26;99696.30;;;21.77;37.86
50867;BME280;36839;51.946;21.002;2023-04-23T10:49:53;99694.77;;;21.82;35.55
50867;BME280;36839;51.946;21.002;2023-04-23T10:52:22;99692.59;;;21.85;36.85
50867;BME280;36839;51.946;21.002;2023-04-23T10:54:57;99684.11;;;21.89;35.06
50867;BME280;36839;51.946;21.002;2023-04-23T10:57:26;99682.71;;;21.91;36.06
50867;BME280;36839;51.946;21.002;2023-04-23T10:59:55;99685.15;;;21.98;36.80
50867;BME280;36839;51.946;21.002;2023-04-23T11:02:25;99678.52;;;22.04;36.22
50867;BME280;36839;51.946;21.002;2023-04-23T11:05:10;99679.07;;;22.12;37.34
50867;BME280;36839;51.946;21.002;2023-04-23T11:07:39;99681.22;;;22.20;36.17
50867;BME280;36839;51.946;21.002;2023-04-23T11:10:13;99671.02;;;22.23;32.98
50867;BME280;36839;51.946;21.002;2023-04-23T11:12:46;99676.77;;;22.16;33.47
50867;BME280;36839;51.946;21.002;2023-04-23T11:15:15;99667.20;;;22.10;33.15
